FMCV

Details ICAO FMCV (AJN)
Name OUANI
Region Comoros, Mayotte, Réunion and Madagascar
Timezone Indian/Comoro (UTC+3.0)
Plans Departing 5
Arriving 4
Stats Elevation 62 ft / 19 m (AMSL)
Location -12.131514° 44.430360°
Runways 1
Magnetic Variation 7.291° W
Sunrise 2018-05-23 03:15:17 UTC / 2018-05-23 06:15:17 Local
Sunset 2018-05-23 14:45:37 UTC / 2018-05-23 17:45:37 Local
Advertisement - Login to hide

Runways

ID Width Length Bearing (true) Bearing (mag) Surface Threshold Offset Overrun Length
10 92 ft / 28 m 4,416 ft / 1,346 m 94.87° 102.16° Asphalt 0 ft / 0 m 164 ft / 50 m
28 92 ft / 28 m 4,416 ft / 1,346 m 274.87° 282.16° Asphalt 0 ft / 0 m 89 ft / 27 m

Map

Weather


0- 5 10 15 20 25 30 35+ Temperature / ° C

Clouds and Precipitation
Forecast for 2018-05-23 12:00 UTC. Updated 2 hours ago

Ground ~20,000 ft ~40,000 ft Winds

METAR

FMCV 231200Z 22004KT 9999 SCT020 28/23 Q1013

TAF

Not found

Frequencies

Tower 119.70 MHz TWR
Warning: Do not use this data for real-world aviation or navigation. No guarantee of current accuracy is given.